Time;durP1;ratioP1;P1;durP2;ratioP2;P2;SDS_P1;SDS_P2;PMS_P1;PMS_P2;Temp;Humidity;BMP_temperature;BMP_pressure;BME280_temperature;BME280_humidity;BME280_pressure;Samples;Min_cycle;Max_cycle;Signal;HPM_P1;HPM_P2
2021/11/03 00:00:05;;;;;;;3.90;2.30;;;;;;;8.95;100.00;99433.03;5072604;28;20260;-65
2021/11/03 00:02:31;;;;;;;7.68;2.22;;;;;;;8.98;100.00;99428.84;5069128;28;20060;-65
2021/11/03 00:04:57;;;;;;;4.78;2.67;;;;;;;8.93;100.00;99431.84;5058834;28;20087;-65
2021/11/03 00:07:23;;;;;;;5.57;2.92;;;;;;;8.93;100.00;99431.84;5070793;28;20048;-65
2021/11/03 00:09:48;;;;;;;4.70;2.55;;;;;;;8.93;99.76;99429.94;5064917;28;20024;-65
2021/11/03 00:12:15;;;;;;;4.13;2.50;;;;;;;8.82;100.00;99426.44;5062629;28;20095;-65
2021/11/03 00:14:41;;;;;;;8.02;3.20;;;;;;;8.85;100.00;99424.91;5069212;28;20036;-65
2021/11/03 00:17:07;;;;;;;8.07;2.92;;;;;;;8.84;100.00;99423.38;5070188;28;20108;-65
2021/11/03 00:19:33;;;;;;;5.70;2.72;;;;;;;8.79;99.60;99427.16;5072499;28;20035;-66
2021/11/03 00:21:59;;;;;;;7.30;2.63;;;;;;;8.81;99.68;99427.56;5060866;28;20036;-66
2021/11/03 00:24:25;;;;;;;6.00;2.58;;;;;;;8.75;99.22;99425.59;5058902;28;20047;-65
2021/11/03 00:26:50;;;;;;;6.32;2.80;;;;;;;8.78;99.67;99424.84;5057889;28;20383;-66
2021/11/03 00:29:15;;;;;;;9.13;2.45;;;;;;;8.75;99.40;99429.03;5061497;28;20031;-66
2021/11/03 00:31:41;;;;;;;7.35;2.28;;;;;;;8.68;99.81;99431.69;5058141;28;20070;-66
2021/11/03 00:34:07;;;;;;;6.15;2.58;;;;;;;8.61;99.99;99428.19;5068779;28;20028;-65
2021/11/03 00:36:33;;;;;;;5.05;2.70;;;;;;;8.65;99.56;99424.34;5065350;28;20068;-65
2021/11/03 00:38:59;;;;;;;4.72;2.33;;;;;;;8.58;99.63;99426.22;5049304;28;20037;-66
2021/11/03 00:41:25;;;;;;;7.07;2.88;;;;;;;8.55;100.00;99438.47;5062869;28;20025;-66
2021/11/03 00:43:53;;;;;;;6.75;2.40;;;;;;;8.54;99.53;99433.47;5050783;28;20028;-66
2021/11/03 00:46:19;;;;;;;5.97;2.00;;;;;;;8.49;99.86;99439.97;5040601;28;20033;-66
2021/11/03 00:48:44;;;;;;;4.25;2.53;;;;;;;8.49;99.41;99433.81;5046074;28;20032;-66
2021/11/03 00:51:13;;;;;;;3.97;2.38;;;;;;;8.45;99.48;99424.97;5042040;28;20029;-66
2021/11/03 00:53:39;;;;;;;5.88;2.28;;;;;;;8.48;99.46;99426.94;5053211;28;20029;-66
2021/11/03 00:56:05;;;;;;;4.13;2.67;;;;;;;8.49;99.19;99429.22;5061564;28;20402;-66
2021/11/03 00:58:31;;;;;;;5.28;2.25;;;;;;;8.43;99.44;99428.03;5048207;28;20041;-66
2021/11/03 01:00:57;;;;;;;6.20;2.80;;;;;;;8.41;99.52;99430.31;5061954;28;20085;-66
2021/11/03 01:03:22;;;;;;;3.53;2.20;;;;;;;8.38;99.19;99422.97;5052994;28;20504;-65
2021/11/03 01:05:48;;;;;;;3.63;1.83;;;;;;;8.32;100.00;99426.41;5053882;28;20037;-66
2021/11/03 01:08:14;;;;;;;4.75;2.65;;;;;;;8.43;99.39;99419.19;5055723;28;20032;-65
2021/11/03 01:10:47;;;;;;;3.33;2.13;;;;;;;8.32;99.50;99424.50;5067152;28;20036;-65
2021/11/03 01:13:15;;;;;;;5.82;2.47;;;;;;;8.29;100.00;99421.75;5051001;28;20086;-66
2021/11/03 01:15:41;;;;;;;6.10;2.95;;;;;;;8.23;99.95;99423.22;5060199;28;20023;-65
2021/11/03 01:18:07;;;;;;;4.32;2.45;;;;;;;8.28;99.77;99420.22;5056689;28;20028;-65
2021/11/03 01:20:33;;;;;;;4.53;2.10;;;;;;;8.27;100.00;99416.75;5044194;28;20036;-66
2021/11/03 01:22:59;;;;;;;5.50;2.25;;;;;;;8.21;99.97;99420.88;5060663;28;20028;-66
2021/11/03 01:25:26;;;;;;;5.45;2.50;;;;;;;8.16;100.00;99423.91;5048162;28;20078;-65
2021/11/03 01:27:52;;;;;;;5.78;2.30;;;;;;;8.18;100.00;99422.41;5065279;28;20032;-65
2021/11/03 01:30:23;;;;;;;5.18;2.20;;;;;;;8.25;100.00;99413.69;5044524;28;20046;-65
2021/11/03 01:32:49;;;;;;;3.92;2.53;;;;;;;8.23;99.98;99419.38;5069331;28;20036;-65
2021/11/03 01:35:15;;;;;;;5.10;2.35;;;;;;;8.26;100.00;99415.22;5052585;28;20426;-66
2021/11/03 01:37:41;;;;;;;7.30;3.38;;;;;;;8.29;99.72;99417.16;5064793;28;20036;-66
2021/11/03 01:40:13;;;;;;;5.18;2.67;;;;;;;8.23;99.96;99415.19;5052173;28;20097;-66
2021/11/03 01:42:40;;;;;;;6.40;2.92;;;;;;;8.20;100.00;99409.41;5020397;28;20036;-65
2021/11/03 01:45:08;;;;;;;7.05;2.63;;;;;;;8.19;100.00;99413.22;5044065;28;20108;-65
2021/11/03 01:47:48;;;;;;;4.32;1.77;;;;;;;8.23;100.00;99409.81;5047703;28;20040;-65
2021/11/03 01:50:40;;;;;;;4.43;2.35;;;;;;;8.22;100.00;99406.34;5048125;28;20068;-65
2021/11/03 01:53:09;;;;;;;5.25;2.40;;;;;;;8.23;100.00;99403.28;5047077;28;20033;-65
2021/11/03 01:55:40;;;;;;;5.63;2.28;;;;;;;8.24;100.00;99414.81;5042317;28;20040;-66
2021/11/03 01:58:11;;;;;;;3.20;1.83;;;;;;;8.27;100.00;99416.75;5060329;28;20029;-66
2021/11/03 02:00:40;;;;;;;6.15;2.65;;;;;;;8.28;100.00;99412.19;5045807;28;20123;-65
2021/11/03 02:03:09;;;;;;;6.22;2.70;;;;;;;8.29;100.00;99406.44;5057055;28;20029;-65
2021/11/03 02:05:43;;;;;;;4.72;2.25;;;;;;;8.26;100.00;99407.19;5039986;28;20028;-66
2021/11/03 02:08:09;;;;;;;7.93;2.30;;;;;;;8.26;100.00;99412.56;5064748;28;20028;-65
2021/11/03 02:10:35;;;;;;;4.82;2.20;;;;;;;8.35;100.00;99409.53;5037928;28;20040;-66
2021/11/03 02:13:01;;;;;;;5.65;2.38;;;;;;;8.34;100.00;99416.84;5051646;28;20107;-65
2021/11/03 02:15:28;;;;;;;7.15;2.75;;;;;;;8.33;100.00;99401.88;5038435;28;20164;-66
2021/11/03 02:17:55;;;;;;;5.68;2.67;;;;;;;8.36;100.00;99411.88;5050282;28;20037;-65
2021/11/03 02:20:24;;;;;;;5.68;2.45;;;;;;;8.39;100.00;99411.13;5058292;28;20033;-66
2021/11/03 02:23:03;;;;;;;4.93;2.35;;;;;;;8.42;100.00;99409.63;5034833;28;20067;-66
2021/11/03 02:25:35;;;;;;;4.47;2.05;;;;;;;8.44;100.00;99418.81;5065709;28;20134;-66
2021/11/03 02:28:03;;;;;;;4.40;2.45;;;;;;;8.45;100.00;99408.88;5037912;28;20032;-65
2021/11/03 02:30:29;;;;;;;3.10;2.38;;;;;;;8.52;100.00;99408.91;5036252;28;20028;-66
2021/11/03 02:33:08;;;;;;;3.55;2.08;;;;;;;8.58;100.00;99402.06;5058870;28;20039;-65
2021/11/03 02:35:36;;;;;;;4.32;2.05;;;;;;;8.49;100.00;99404.31;5049117;28;20028;-66
2021/11/03 02:38:03;;;;;;;4.90;2.67;;;;;;;8.47;100.00;99406.59;5048336;28;20558;-66
2021/11/03 02:40:44;;;;;;;4.70;2.33;;;;;;;8.55;100.00;99406.28;5068493;28;20020;-66
2021/11/03 02:43:18;;;;;;;4.97;2.30;;;;;;;8.57;100.00;99408.59;5048488;28;20058;-65
2021/11/03 02:45:56;;;;;;;4.72;2.45;;;;;;;8.54;100.00;99407.41;5058217;28;20060;-66
2021/11/03 02:48:25;;;;;;;6.45;2.42;;;;;;;8.59;100.00;99399.03;5046062;28;20032;-66
2021/11/03 02:51:16;;;;;;;7.97;2.85;;;;;;;8.58;100.00;99402.06;5042726;28;20028;-66
2021/11/03 02:53:45;;;;;;;5.68;2.45;;;;;;;8.58;100.00;99402.84;5054285;28;20052;-66
2021/11/03 02:56:19;;;;;;;7.18;2.75;;;;;;;8.67;100.00;99410.59;5045896;28;20028;-65
2021/11/03 02:58:45;;;;;;;5.65;2.63;;;;;;;8.63;100.00;99404.44;5041111;28;20025;-66
2021/11/03 03:01:19;;;;;;;5.13;2.92;;;;;;;8.66;100.00;99407.13;5043325;28;20029;-65
2021/11/03 03:03:46;;;;;;;5.60;2.38;;;;;;;8.65;100.00;99413.63;5053410;28;20033;-66
2021/11/03 03:06:19;;;;;;;5.38;2.53;;;;;;;8.66;100.00;99412.50;5051261;28;20502;-66
2021/11/03 03:08:46;;;;;;;10.05;2.47;;;;;;;8.75;100.00;99415.63;5046061;28;20036;-66
2021/11/03 03:11:12;;;;;;;6.28;3.05;;;;;;;8.69;100.00;99405.63;5070474;28;20463;-66
2021/11/03 03:13:39;;;;;;;6.72;2.55;;;;;;;8.71;100.00;99412.13;5041768;28;20086;-66
2021/11/03 03:16:04;;;;;;;4.20;2.33;;;;;;;8.67;100.00;99408.66;5060690;28;20379;-66
2021/11/03 03:18:30;;;;;;;6.13;2.63;;;;;;;8.68;100.00;99415.59;5041804;28;20081;-66
2021/11/03 03:20:56;;;;;;;4.70;2.45;;;;;;;8.76;100.00;99417.19;5037494;28;20087;-66
2021/11/03 03:23:22;;;;;;;4.38;2.10;;;;;;;8.76;100.00;99414.50;5053140;28;20452;-66
2021/11/03 03:25:49;;;;;;;6.28;2.40;;;;;;;8.71;100.00;99417.50;5055578;28;20082;-66
2021/11/03 03:28:17;;;;;;;6.53;2.72;;;;;;;8.83;100.00;99419.13;5051654;28;20067;-65
2021/11/03 03:30:45;;;;;;;6.68;2.17;;;;;;;8.82;100.00;99413.00;5051143;28;20089;-66
2021/11/03 03:33:11;;;;;;;4.95;2.58;;;;;;;8.77;100.00;99418.72;5035367;28;20044;-66
2021/11/03 03:35:37;;;;;;;6.18;2.40;;;;;;;8.78;100.00;99425.63;5052447;28;20056;-66
2021/11/03 03:38:03;;;;;;;4.60;2.30;;;;;;;8.78;100.00;99427.53;5065688;28;20067;-66
2021/11/03 03:40:31;;;;;;;3.85;2.13;;;;;;;8.84;100.00;99426.81;5053684;28;20031;-65
2021/11/03 03:42:57;;;;;;;6.43;2.90;;;;;;;8.79;100.00;99416.41;5050924;28;20487;-66
2021/11/03 03:45:23;;;;;;;6.45;2.63;;;;;;;8.85;100.00;99422.97;5054548;28;20043;-66
2021/11/03 03:47:48;;;;;;;5.60;2.30;;;;;;;8.87;100.00;99428.75;5057153;28;20035;-66
2021/11/03 03:50:14;;;;;;;4.28;2.20;;;;;;;8.95;100.00;99426.88;5057874;28;20036;-66
2021/11/03 03:52:40;;;;;;;5.05;2.75;;;;;;;8.91;100.00;99418.81;5060319;28;20371;-66
2021/11/03 03:55:07;;;;;;;6.32;3.03;;;;;;;8.86;100.00;99421.84;5045026;28;20717;-66
2021/11/03 03:57:33;;;;;;;4.38;2.55;;;;;;;8.88;100.00;99419.53;5047994;28;20028;-66
2021/11/03 03:59:59;;;;;;;3.78;2.33;;;;;;;8.94;100.00;99412.69;5050254;28;20037;-65
2021/11/03 04:02:25;;;;;;;3.97;1.92;;;;;;;8.87;100.00;99415.34;5038662;28;20029;-65
2021/11/03 04:04:50;;;;;;;3.30;1.83;;;;;;;8.89;100.00;99426.47;5047377;28;20026;-66
2021/11/03 04:07:16;;;;;;;4.80;2.28;;;;;;;8.91;100.00;99418.81;5036761;28;20047;-66
2021/11/03 04:09:42;;;;;;;5.40;2.30;;;;;;;8.88;100.00;99424.16;5041792;28;20025;-65
2021/11/03 04:12:09;;;;;;;5.95;2.17;;;;;;;8.81;100.00;99432.16;5058236;28;20039;-65
2021/11/03 04:14:35;;;;;;;5.97;2.88;;;;;;;8.83;100.00;99433.31;5059355;28;20040;-66
2021/11/03 04:17:00;;;;;;;3.67;2.05;;;;;;;8.81;100.00;99438.28;5049118;28;20911;-66
2021/11/03 04:19:26;;;;;;;7.07;2.65;;;;;;;8.80;100.00;99444.81;5060220;28;20382;-66
2021/11/03 04:21:54;;;;;;;6.57;3.00;;;;;;;8.79;100.00;99439.78;5059966;28;20398;-66
2021/11/03 04:24:29;;;;;;;5.85;2.42;;;;;;;8.85;100.00;99443.69;5032109;28;20043;-66
2021/11/03 04:26:56;;;;;;;4.22;2.63;;;;;;;8.83;100.00;99445.97;5043490;28;20033;-66
2021/11/03 04:29:22;;;;;;;4.05;2.33;;;;;;;8.86;100.00;99447.91;5042250;28;20074;-66
2021/11/03 04:31:49;;;;;;;5.53;2.63;;;;;;;8.84;100.00;99442.16;5035188;28;20036;-66
2021/11/03 04:34:16;;;;;;;4.20;2.10;;;;;;;8.81;100.00;99442.88;5042198;28;20135;-66
2021/11/03 04:36:42;;;;;;;7.65;2.90;;;;;;;8.77;100.00;99461.66;5038919;28;20076;-66
2021/11/03 04:39:10;;;;;;;8.70;2.28;;;;;;;8.77;100.00;99456.28;5045399;28;20496;-66
2021/11/03 04:41:39;;;;;;;3.67;2.35;;;;;;;8.81;100.00;99469.72;5046747;28;20402;-66
2021/11/03 04:44:06;;;;;;;5.50;2.33;;;;;;;8.77;100.00;99467.00;5065037;28;20486;-66
2021/11/03 04:46:33;;;;;;;4.60;2.22;;;;;;;8.76;100.00;99462.81;5047308;28;20119;-66
2021/11/03 04:48:59;;;;;;;3.67;1.58;;;;;;;8.72;100.00;99478.09;5049941;28;20025;-66
2021/11/03 04:51:25;;;;;;;4.68;2.80;;;;;;;8.69;100.00;99462.72;5040016;28;20036;-66
2021/11/03 04:53:52;;;;;;;5.30;2.65;;;;;;;8.82;100.00;99472.06;5045811;28;20041;-66
2021/11/03 04:56:19;;;;;;;6.95;2.55;;;;;;;8.84;100.00;99469.78;5052304;28;20035;-66
2021/11/03 04:58:48;;;;;;;4.80;2.15;;;;;;;8.89;100.00;99466.72;5045998;28;20536;-66
2021/11/03 05:01:15;;;;;;;5.75;2.90;;;;;;;8.89;100.00;99464.06;5049168;28;20116;-66
2021/11/03 05:03:41;;;;;;;7.72;2.67;;;;;;;8.89;100.00;99476.69;5045481;28;20497;-66
2021/11/03 05:06:07;;;;;;;4.85;2.53;;;;;;;8.83;100.00;99476.28;5050557;28;20104;-66
2021/11/03 05:08:33;;;;;;;3.25;2.17;;;;;;;8.88;100.00;99467.88;5042483;28;20622;-66
2021/11/03 05:10:59;;;;;;;3.83;2.25;;;;;;;8.91;100.00;99464.44;5036088;28;20029;-66
2021/11/03 05:13:27;;;;;;;3.92;2.17;;;;;;;8.92;100.00;99465.97;5043761;28;20028;-66
2021/11/03 05:15:53;;;;;;;4.20;2.38;;;;;;;8.95;100.00;99467.94;5051946;28;20029;-66
2021/11/03 05:18:19;;;;;;;3.58;2.20;;;;;;;8.93;100.00;99462.16;5048914;28;20027;-66
2021/11/03 05:20:45;;;;;;;4.50;2.20;;;;;;;8.94;100.00;99466.38;5047071;28;20028;-66
2021/11/03 05:23:11;;;;;;;4.85;2.38;;;;;;;8.95;100.00;99473.31;5043186;28;20016;-66
2021/11/03 05:25:36;;;;;;;3.85;2.33;;;;;;;8.98;100.00;99471.78;5059626;28;20123;-66
2021/11/03 05:28:02;;;;;;;4.40;2.13;;;;;;;9.03;100.00;99468.75;5057903;28;20111;-66
2021/11/03 05:30:28;;;;;;;4.47;2.15;;;;;;;8.95;100.00;99462.56;5037331;28;20609;-66
2021/11/03 05:32:54;;;;;;;4.65;2.50;;;;;;;8.90;100.00;99462.16;5067715;28;20389;-66
2021/11/03 05:35:20;;;;;;;4.07;2.25;;;;;;;8.88;100.00;99459.06;5060054;28;20023;-66
2021/11/03 05:37:47;;;;;;;8.27;2.55;;;;;;;8.97;100.00;99462.97;5067448;28;20033;-66
2021/11/03 05:40:17;;;;;;;6.22;2.70;;;;;;;8.97;100.00;99460.28;5065562;28;20028;-66
2021/11/03 05:42:42;;;;;;;5.82;2.70;;;;;;;8.96;100.00;99460.66;5071098;28;20043;-65
2021/11/03 05:45:08;;;;;;;6.13;2.33;;;;;;;9.00;100.00;99464.88;5062861;28;20017;-67
2021/11/03 05:47:34;;;;;;;5.05;2.53;;;;;;;8.97;100.00;99462.97;5063140;28;20037;-66
2021/11/03 05:50:00;;;;;;;3.90;1.92;;;;;;;8.92;100.00;99465.97;5049499;28;20086;-66
2021/11/03 05:52:26;;;;;;;6.82;2.67;;;;;;;8.94;100.00;99471.75;5068612;28;20032;-66
2021/11/03 05:57:32;;;;;;;4.93;2.58;;;;;;;8.93;100.00;99467.53;5058132;28;20060;-66
2021/11/03 05:59:59;;;;;;;5.50;2.17;;;;;;;8.89;100.00;99474.78;5067516;28;20428;-66
2021/11/03 06:02:25;;;;;;;7.00;2.85;;;;;;;8.96;100.00;99469.47;5063546;28;20056;-66
2021/11/03 06:04:51;;;;;;;5.13;2.45;;;;;;;8.93;100.00;99472.91;5067441;28;20542;-67
2021/11/03 06:07:18;;;;;;;6.32;2.72;;;;;;;9.00;100.00;99478.31;5086458;28;20024;-66
2021/11/03 06:09:44;;;;;;;8.00;3.28;;;;;;;8.96;100.00;99487.50;5083147;28;20040;-66
2021/11/03 06:12:10;;;;;;;7.28;3.22;;;;;;;8.86;100.00;99488.97;5085523;28;20027;-66
2021/11/03 06:14:35;;;;;;;6.85;2.40;;;;;;;8.90;100.00;99483.63;5084965;28;20021;-66
2021/11/03 06:17:01;;;;;;;6.13;2.58;;;;;;;8.87;100.00;99490.50;5089648;28;20031;-66
2021/11/03 06:19:26;;;;;;;6.05;2.22;;;;;;;8.84;100.00;99487.78;5081532;28;20032;-67
2021/11/03 06:21:53;;;;;;;14.15;3.05;;;;;;;8.88;100.00;99492.03;5086629;28;20111;-66
2021/11/03 06:24:20;;;;;;;4.97;2.53;;;;;;;8.86;100.00;99510.44;5086762;28;20040;-66
2021/11/03 06:26:46;;;;;;;8.02;3.13;;;;;;;8.85;100.00;99505.41;5089104;28;20031;-66
2021/11/03 06:29:12;;;;;;;4.65;2.53;;;;;;;8.78;100.00;99511.53;5088590;28;20032;-66
2021/11/03 06:31:38;;;;;;;6.13;2.63;;;;;;;8.71;100.00;99508.75;5085208;28;20032;-66
2021/11/03 06:34:05;;;;;;;5.47;2.75;;;;;;;8.74;100.00;99517.97;5088190;28;20477;-66
2021/11/03 06:36:32;;;;;;;5.80;2.58;;;;;;;8.74;100.00;99512.63;5071366;28;20063;-66
2021/11/03 06:38:58;;;;;;;7.00;2.72;;;;;;;8.70;100.00;99522.53;5086747;28;20032;-66
2021/11/03 06:41:25;;;;;;;5.68;2.63;;;;;;;8.64;100.00;99522.13;5075013;28;20129;-67
2021/11/03 06:43:51;;;;;;;5.18;2.90;;;;;;;8.64;100.00;99519.44;5088479;28;20032;-66
2021/11/03 06:46:17;;;;;;;7.78;2.92;;;;;;;8.61;100.00;99527.47;5086449;28;20035;-66
2021/11/03 06:48:43;;;;;;;5.55;2.70;;;;;;;8.57;100.00;99532.00;5090056;28;20474;-66
2021/11/03 06:51:09;;;;;;;5.57;2.60;;;;;;;8.46;100.00;99539.94;5089353;28;20032;-66
2021/11/03 06:53:35;;;;;;;5.68;2.55;;;;;;;8.49;100.00;99533.84;5082647;28;20708;-66
2021/11/03 06:56:03;;;;;;;7.70;3.45;;;;;;;8.52;100.00;99533.09;5084536;28;20020;-66
2021/11/03 06:58:29;;;;;;;6.10;2.80;;;;;;;8.48;100.00;99536.91;5085365;28;20039;-66
2021/11/03 07:00:56;;;;;;;7.93;2.97;;;;;;;8.45;100.00;99533.03;5085721;28;20062;-66
2021/11/03 07:03:23;;;;;;;5.28;2.70;;;;;;;8.42;100.00;99533.75;5089159;28;20525;-66
2021/11/03 07:05:50;;;;;;;5.45;2.35;;;;;;;8.38;100.00;99541.00;5078658;28;20414;-66
2021/11/03 07:08:16;;;;;;;7.80;3.22;;;;;;;8.37;100.00;99547.50;5087299;28;20039;-66
2021/11/03 07:10:45;;;;;;;6.32;2.70;;;;;;;8.36;100.00;99534.47;5080527;28;20085;-66
2021/11/03 07:13:11;;;;;;;7.63;2.85;;;;;;;8.34;100.00;99542.13;5083284;28;20525;-66
2021/11/03 07:15:38;;;;;;;6.60;3.00;;;;;;;8.25;100.00;99544.31;5077007;28;20032;-66
2021/11/03 07:18:06;;;;;;;6.65;2.90;;;;;;;8.27;100.00;99532.06;5082622;28;20435;-66
2021/11/03 07:20:31;;;;;;;3.72;2.15;;;;;;;8.27;100.00;99548.16;5077483;28;20125;-66
2021/11/03 07:22:57;;;;;;;5.00;2.67;;;;;;;8.32;100.00;99544.41;5085560;28;20073;-66
2021/11/03 07:25:24;;;;;;;6.20;2.63;;;;;;;8.27;100.00;99552.75;5084340;28;20032;-66
2021/11/03 07:27:51;;;;;;;5.20;2.40;;;;;;;8.32;100.00;99560.50;5079281;28;20382;-66
2021/11/03 07:30:20;;;;;;;4.55;2.20;;;;;;;8.32;100.00;99576.59;5076058;28;20170;-66
2021/11/03 07:32:46;;;;;;;4.15;2.47;;;;;;;8.35;100.00;99570.47;5079418;28;20024;-66
2021/11/03 07:35:11;;;;;;;5.65;2.67;;;;;;;8.38;100.00;99569.75;5080724;28;20024;-66
2021/11/03 07:37:37;;;;;;;9.68;3.03;;;;;;;8.44;100.00;99576.34;5069522;28;20036;-66
2021/11/03 07:40:06;;;;;;;6.22;2.97;;;;;;;8.42;100.00;99565.94;5072354;28;20033;-66
2021/11/03 07:42:32;;;;;;;7.80;3.33;;;;;;;8.44;100.00;99569.03;5082411;28;20076;-66
2021/11/03 07:44:57;;;;;;;13.23;3.60;;;;;;;8.45;100.00;99570.59;5088146;28;20071;-66
2021/11/03 07:47:24;;;;;;;4.32;2.30;;;;;;;8.48;100.00;99571.78;5082700;28;20063;-66
2021/11/03 07:49:49;;;;;;;8.27;3.13;;;;;;;8.39;100.00;99565.91;5085536;28;20039;-66
2021/11/03 07:52:15;;;;;;;7.03;2.78;;;;;;;8.44;100.00;99569.03;5082995;28;20036;-66
2021/11/03 07:54:41;;;;;;;5.57;2.75;;;;;;;8.47;100.00;99573.69;5081393;28;20044;-67
2021/11/03 07:57:07;;;;;;;8.10;3.13;;;;;;;8.52;100.00;99572.56;5088349;28;20048;-66
2021/11/03 07:59:32;;;;;;;12.57;2.72;;;;;;;8.64;100.00;99577.69;5072299;28;20085;-66
2021/11/03 08:01:59;;;;;;;7.63;3.53;;;;;;;8.61;100.00;99573.84;5090737;28;20060;-66
2021/11/03 08:04:25;;;;;;;9.00;3.13;;;;;;;8.76;100.00;99574.75;5087295;28;20051;-66
2021/11/03 08:06:50;;;;;;;7.65;3.42;;;;;;;8.81;100.00;99574.41;5084158;28;20036;-66
2021/11/03 08:09:16;;;;;;;9.43;3.13;;;;;;;8.91;100.00;99581.78;5088242;28;20035;-66
2021/11/03 08:11:50;;;;;;;8.93;3.45;;;;;;;9.07;100.00;99585.00;5085247;28;20042;-66
2021/11/03 08:14:19;;;;;;;9.90;4.03;;;;;;;9.24;100.00;99586.28;5073526;28;20131;-66
2021/11/03 08:16:57;;;;;;;9.10;3.67;;;;;;;9.41;100.00;99591.03;5077304;28;20445;-66
2021/11/03 08:19:28;;;;;;;8.60;3.58;;;;;;;9.51;100.00;99587.66;5088287;28;20054;-66
2021/11/03 08:21:54;;;;;;;7.25;3.70;;;;;;;9.65;100.00;99590.44;5086655;28;20378;-66
2021/11/03 08:24:19;;;;;;;8.20;3.60;;;;;;;9.73;100.00;99587.44;5089546;28;20043;-66
2021/11/03 08:26:44;;;;;;;10.52;4.28;;;;;;;9.73;100.00;99589.34;5092451;28;20055;-66
2021/11/03 08:29:10;;;;;;;8.38;3.83;;;;;;;9.77;100.00;99587.44;5087570;28;20485;-66
2021/11/03 08:31:37;;;;;;;12.15;3.67;;;;;;;9.80;100.00;99595.53;5085613;28;20338;-66
2021/11/03 08:34:03;;;;;;;10.18;3.90;;;;;;;9.80;100.00;99594.75;5078509;28;20028;-66
2021/11/03 08:36:29;;;;;;;10.68;3.75;;;;;;;9.85;100.00;99594.41;5081330;28;20474;-65
2021/11/03 08:38:58;;;;;;;10.07;3.47;;;;;;;9.98;100.00;99609.88;5084967;28;20073;-70
2021/11/03 08:41:27;;;;;;;11.52;4.20;;;;;;;9.99;100.00;99613.31;5065681;28;20032;-66
2021/11/03 08:43:52;;;;;;;11.70;4.00;;;;;;;10.01;100.00;99614.47;5084454;28;20042;-66
2021/11/03 08:46:18;;;;;;;10.93;4.53;;;;;;;10.02;100.00;99618.72;5088306;28;20032;-66
2021/11/03 08:48:44;;;;;;;12.00;4.55;;;;;;;10.10;99.55;99624.16;5085065;28;20024;-66
2021/11/03 08:51:09;;;;;;;16.25;5.03;;;;;;;10.10;98.38;99624.94;5081404;28;20042;-66
2021/11/03 08:53:35;;;;;;;7.72;3.47;;;;;;;9.89;99.00;99630.91;5085084;28;20059;-65
2021/11/03 08:56:01;;;;;;;12.27;4.55;;;;;;;9.97;99.47;99626.34;5070121;28;20024;-66
2021/11/03 08:58:28;;;;;;;11.00;3.47;;;;;;;9.99;99.15;99627.53;5072452;28;20038;-66
2021/11/03 09:00:56;;;;;;;11.55;4.13;;;;;;;9.99;98.98;99624.06;5080864;28;20106;-66
2021/11/03 09:03:21;;;;;;;16.75;4.57;;;;;;;9.93;100.00;99628.25;5090476;28;20510;-66
2021/11/03 09:05:48;;;;;;;8.50;3.28;;;;;;;9.96;98.82;99619.44;5091353;28;20039;-66
2021/11/03 09:08:15;;;;;;;11.93;4.25;;;;;;;9.93;99.19;99618.25;5092357;28;20102;-66
2021/11/03 09:10:46;;;;;;;14.65;5.07;;;;;;;9.89;100.00;99611.34;5089861;28;20035;-66
2021/11/03 09:13:24;;;;;;;13.35;3.90;;;;;;;9.91;100.00;99612.50;5075173;28;20039;-67
2021/11/03 09:15:51;;;;;;;11.55;4.32;;;;;;;10.06;99.61;99605.28;5090599;28;20036;-66
2021/11/03 09:18:17;;;;;;;12.05;4.55;;;;;;;10.19;99.53;99603.84;5079779;28;20039;-65
2021/11/03 09:20:43;;;;;;;17.98;4.45;;;;;;;10.29;99.68;99597.75;5082798;28;20071;-66
2021/11/03 09:23:09;;;;;;;10.98;4.53;;;;;;;10.40;99.03;99601.22;5078523;28;20040;-66
2021/11/03 09:25:35;;;;;;;15.32;6.07;;;;;;;10.48;97.74;99604.72;5082066;28;20028;-66
2021/11/03 09:28:00;;;;;;;12.02;4.32;;;;;;;10.41;98.18;99600.09;5086673;28;22924;-66
2021/11/03 09:30:27;;;;;;;9.68;3.83;;;;;;;10.41;98.81;99610.09;5077349;28;20383;-66
2021/11/03 09:32:56;;;;;;;12.50;3.97;;;;;;;10.52;98.72;99597.44;5090555;28;20042;-66
2021/11/03 09:35:26;;;;;;;8.80;3.33;;;;;;;10.58;98.22;99590.53;5088313;28;20024;-66
2021/11/03 09:37:51;;;;;;;10.85;3.38;;;;;;;10.67;97.20;99594.41;5088182;28;20054;-66
2021/11/03 09:40:24;;;;;;;9.10;4.35;;;;;;;10.68;98.13;99597.88;5086506;28;20048;-66
2021/11/03 09:42:51;;;;;;;9.45;3.60;;;;;;;10.78;96.86;99591.75;5083629;28;20482;-66
2021/11/03 09:45:28;;;;;;;13.70;4.55;;;;;;;10.72;96.65;99595.94;5089199;28;20485;-65
2021/11/03 09:48:12;;;;;;;11.80;3.55;;;;;;;10.73;96.15;99592.88;5083785;28;20032;-66
2021/11/03 09:50:40;;;;;;;10.05;4.10;;;;;;;10.76;95.79;99586.72;5074999;28;20028;-66
2021/11/03 09:53:29;;;;;;;11.52;3.63;;;;;;;10.73;96.79;99597.47;5082156;28;20458;-66
2021/11/03 09:55:55;;;;;;;12.55;4.10;;;;;;;10.81;96.25;99593.66;5077239;28;20035;-66
2021/11/03 09:58:42;;;;;;;10.90;4.57;;;;;;;10.87;96.62;99598.28;5079171;28;20085;-66
2021/11/03 10:01:20;;;;;;;10.25;4.38;;;;;;;10.95;95.84;99601.00;5084735;28;20036;-65
2021/11/03 10:03:59;;;;;;;16.55;4.82;;;;;;;10.97;96.23;99606.75;5083297;28;20504;-66
2021/11/03 10:07:01;;;;;;;9.98;4.15;;;;;;;10.95;96.78;99599.06;5089606;28;20040;-66
2021/11/03 10:09:26;;;;;;;;;;;;;;;10.92;96.14;99593.69;5080172;28;20115;-66
2021/11/03 10:11:54;;;;;;;9.85;4.05;;;;;;;10.96;96.38;99597.13;5086583;28;19993;-65
2021/11/03 10:14:20;;;;;;;13.35;5.15;;;;;;;10.98;95.86;99586.75;5087635;28;20058;-66
2021/11/03 10:16:51;;;;;;;16.30;4.78;;;;;;;11.08;95.56;99597.53;5086494;28;20054;-64
2021/11/03 10:19:16;;;;;;;13.70;4.68;;;;;;;11.03;96.12;99591.78;5090997;28;20035;-64
2021/11/03 10:21:47;;;;;;;15.48;5.00;;;;;;;11.08;95.98;99597.53;5089553;28;20020;-65
2021/11/03 10:24:13;;;;;;;19.10;5.90;;;;;;;11.17;95.41;99597.19;5064901;28;20486;-66
2021/11/03 10:26:51;;;;;;;19.33;5.65;;;;;;;11.16;95.56;99584.84;5082811;28;20036;-65
2021/11/03 10:29:24;;;;;;;13.13;4.78;;;;;;;11.17;95.48;99594.47;5082907;28;20036;-65
2021/11/03 10:32:03;;;;;;;13.02;5.03;;;;;;;11.21;95.54;99598.69;5086208;28;20034;-65
2021/11/03 10:34:42;;;;;;;13.07;4.50;;;;;;;11.22;95.00;99589.47;5090277;28;20035;-65
2021/11/03 10:37:15;;;;;;;12.30;4.28;;;;;;;11.23;94.00;99591.00;5085276;28;20027;-65
2021/11/03 10:40:05;;;;;;;10.80;4.70;;;;;;;11.20;92.84;99596.41;5083265;28;20502;-65
2021/11/03 10:42:40;;;;;;;9.52;4.13;;;;;;;11.14;94.08;99600.63;5087138;28;20551;-65
2021/11/03 10:45:15;;;;;;;9.40;4.47;;;;;;;11.13;93.69;99602.53;5077314;28;20024;-67
2021/11/03 10:47:42;;;;;;;12.30;4.22;;;;;;;11.08;94.20;99602.16;5088231;28;20028;-65
2021/11/03 10:50:42;;;;;;;9.98;4.43;;;;;;;11.14;93.73;99612.19;5089447;28;20017;-64
2021/11/03 10:53:22;;;;;;;11.80;4.60;;;;;;;11.17;93.36;99608.69;5077483;28;20028;-65
2021/11/03 10:56:09;;;;;;;14.15;5.00;;;;;;;11.17;93.93;99608.69;5086694;28;20027;-65
2021/11/03 10:58:39;;;;;;;10.60;4.05;;;;;;;11.17;94.20;99619.47;5087064;28;20503;-66
2021/11/03 11:01:07;;;;;;;12.85;4.32;;;;;;;11.23;93.48;99620.66;5087968;28;20023;-66
2021/11/03 11:04:03;;;;;;;12.88;4.78;;;;;;;11.17;93.44;99634.91;5090186;28;20050;-66
2021/11/03 11:06:38;;;;;;;12.25;4.72;;;;;;;11.03;93.15;99632.19;5085909;28;20035;-65
2021/11/03 11:09:21;;;;;;;8.73;3.95;;;;;;;11.06;93.34;99628.69;5079099;28;20028;-66
2021/11/03 11:11:50;;;;;;;9.73;3.55;;;;;;;11.07;93.53;99617.53;5088455;28;20036;-67
2021/11/03 11:14:20;;;;;;;10.13;4.35;;;;;;;11.01;94.18;99608.31;5081130;28;20036;-66
2021/11/03 11:17:02;;;;;;;15.00;5.25;;;;;;;11.09;94.03;99614.47;5089115;28;20064;-65
2021/11/03 11:19:58;;;;;;;11.25;3.92;;;;;;;11.09;93.73;99611.78;5081012;28;20040;-65
2021/11/03 11:22:49;;;;;;;12.30;4.45;;;;;;;11.12;93.98;99614.47;5079885;28;20068;-65
2021/11/03 11:25:20;;;;;;;9.93;4.07;;;;;;;11.17;93.82;99610.66;5089948;28;20107;-65
2021/11/03 11:28:18;;;;;;;12.95;3.75;;;;;;;11.21;92.98;99598.69;5089080;28;20062;-65
2021/11/03 11:30:52;;;;;;;10.07;3.88;;;;;;;11.12;93.38;99597.53;5085622;28;20055;-65
2021/11/03 11:33:26;;;;;;;17.27;5.60;;;;;;;10.99;92.76;99599.06;5089787;28;20028;-65
2021/11/03 11:35:54;;;;;;;11.50;4.53;;;;;;;10.93;93.78;99597.91;5093847;28;20132;-65
2021/11/03 11:38:50;;;;;;;9.80;3.70;;;;;;;10.86;94.17;99591.34;5086301;28;20115;-66
2021/11/03 11:41:19;;;;;;;10.98;4.40;;;;;;;10.90;93.91;99592.13;5083665;28;20028;-65